Time;durP1;ratioP1;P1;durP2;ratioP2;P2;SDS_P1;SDS_P2;PMS_P1;PMS_P2;Temp;Humidity;BMP_temperature;BMP_pressure;BME280_temperature;BME280_humidity;BME280_pressure;Samples;Min_cycle;Max_cycle;Signal;HPM_P1;HPM_P2
2023/01/08 00:02:10;;;;;;;;;;;;;;;4.70;86.67;100640.34;1636550;86;20207;-81
2023/01/08 00:04:37;;;;;;;;;;;;;;;4.69;86.64;100641.61;1637164;86;20217;-81
2023/01/08 00:07:03;;;;;;;;;;;;;;;4.66;86.64;100636.07;1618784;87;21042;-81
2023/01/08 00:09:29;;;;;;;;;;;;;;;4.65;86.70;100636.50;1606559;87;20210;-81
2023/01/08 00:11:55;;;;;;;;;;;;;;;4.66;86.66;100636.07;1609032;88;20216;-81
2023/01/08 00:14:22;;;;;;;;;;;;;;;4.65;86.65;100635.64;1601366;88;20550;-82
2023/01/08 00:16:48;;;;;;;;;;;;;;;4.62;86.60;100633.91;1615271;87;20180;-81
2023/01/08 00:19:14;;;;;;;;;;;;;;;4.61;86.63;100636.45;1610751;88;21135;-81
2023/01/08 00:21:40;;;;;;;;;;;;;;;4.60;86.69;100635.59;1609053;87;20203;-81
2023/01/08 00:24:06;;;;;;;;;;;;;;;4.59;86.68;100633.02;1617780;88;20204;-81
2023/01/08 00:26:32;;;;;;;;;;;;;;;4.58;86.64;100626.19;1612811;87;20259;-81
2023/01/08 00:28:59;;;;;;;;;;;;;;;4.56;86.66;100622.75;1611918;87;20184;-81
2023/01/08 00:31:25;;;;;;;;;;;;;;;4.55;86.66;100618.47;1603857;87;21082;-81
2023/01/08 00:33:51;;;;;;;;;;;;;;;4.52;86.61;100615.47;1618209;87;20579;-81
2023/01/08 00:36:18;;;;;;;;;;;;;;;4.50;86.60;100613.73;1607703;87;20569;-81
2023/01/08 00:38:45;;;;;;;;;;;;;;;4.48;86.60;100611.16;1613238;87;20397;-81
2023/01/08 00:41:13;;;;;;;;;;;;;;;4.47;86.64;100616.27;1619881;87;20184;-82
2023/01/08 00:43:39;;;;;;;;;;;;;;;4.45;86.62;100606.44;1604265;88;21587;-81
2023/01/08 00:46:06;;;;;;;;;;;;;;;4.44;86.61;100611.13;1601864;88;20567;-81
2023/01/08 00:48:38;;;;;;;;;;;;;;;4.43;86.69;100605.14;1608366;87;20244;-81
2023/01/08 00:51:06;;;;;;;;;;;;;;;4.42;86.60;100607.27;1615091;88;20525;-81
2023/01/08 00:53:32;;;;;;;;;;;;;;;4.39;86.59;100597.42;1618026;88;20330;-81
2023/01/08 00:56:02;;;;;;;;;;;;;;;4.36;86.57;100591.86;1605640;87;21166;-81
2023/01/08 00:58:29;;;;;;;;;;;;;;;4.33;86.59;100588.84;1602267;88;20608;-81
2023/01/08 01:00:55;;;;;;;;;;;;;;;4.32;86.62;100590.97;1605228;87;20265;-81
2023/01/08 01:03:21;;;;;;;;;;;;;;;4.30;86.60;100587.53;1606048;87;20519;-81
2023/01/08 01:05:48;;;;;;;;;;;;;;;4.30;86.61;100585.40;1610676;87;20194;-81
2023/01/08 01:08:15;;;;;;;;;;;;;;;4.27;86.58;100581.53;1606508;87;21105;-83
2023/01/08 01:10:41;;;;;;;;;;;;;;;4.27;86.62;100582.81;1609804;88;20239;-81
2023/01/08 01:13:07;;;;;;;;;;;;;;;4.26;86.57;100583.23;1614435;87;20194;-81
2023/01/08 01:15:34;;;;;;;;;;;;;;;4.24;86.56;100581.08;1596699;88;20242;-81
2023/01/08 01:18:00;;;;;;;;;;;;;;;4.24;86.62;100589.18;1611644;87;20488;-81
2023/01/08 01:20:26;;;;;;;;;;;;;;;4.23;86.63;100583.63;1600226;88;21097;-81
2023/01/08 01:22:52;;;;;;;;;;;;;;;4.22;86.59;100585.75;1600604;87;20818;-81
2023/01/08 01:25:18;;;;;;;;;;;;;;;4.19;86.51;100591.70;1594150;88;20254;-81
2023/01/08 01:27:44;;;;;;;;;;;;;;;4.17;86.56;100593.80;1612536;88;20228;-81
2023/01/08 01:30:11;;;;;;;;;;;;;;;4.14;86.50;100591.25;1616012;88;20183;-81
2023/01/08 01:32:37;;;;;;;;;;;;;;;4.11;86.55;100590.80;1613118;88;21062;-81
2023/01/08 01:35:04;;;;;;;;;;;;;;;4.11;86.59;100586.96;1606010;88;20514;-81
2023/01/08 01:37:30;;;;;;;;;;;;;;;4.11;86.60;100589.52;1606156;88;20243;-81
2023/01/08 01:39:56;;;;;;;;;;;;;;;4.10;86.58;100583.11;1615285;87;20832;-81
2023/01/08 01:42:42;;;;;;;;;;;;;;;4.10;86.61;100581.83;1599916;87;20203;-81
2023/01/08 01:45:15;;;;;;;;;;;;;;;4.08;86.56;100579.67;1606681;87;21070;-81
2023/01/08 01:47:45;;;;;;;;;;;;;;;4.07;86.58;100585.63;1617850;87;20457;-81
2023/01/08 01:50:18;;;;;;;;;;;;;;;4.05;86.57;100584.34;1594408;88;20110;-81
2023/01/08 01:52:50;;;;;;;;;;;;;;;4.05;86.55;100575.80;1607199;87;20143;-81
2023/01/08 01:55:17;;;;;;;;;;;;;;;4.01;86.52;100574.06;1582946;88;20507;-81
2023/01/08 01:57:46;;;;;;;;;;;;;;;4.00;86.56;100574.48;1582952;89;21064;-81
2023/01/08 02:00:13;;;;;;;;;;;;;;;3.98;86.53;100574.89;1598632;87;20604;-81
2023/01/08 02:02:39;;;;;;;;;;;;;;;3.96;86.53;100578.70;1610955;87;20183;-81
2023/01/08 02:05:07;;;;;;;;;;;;;;;3.93;86.54;100571.42;1609240;88;20423;-82
2023/01/08 02:07:42;;;;;;;;;;;;;;;3.92;86.51;100573.13;1626322;86;20208;-81
2023/01/08 02:10:12;;;;;;;;;;;;;;;3.91;86.46;100574.39;1628184;86;21962;-81
2023/01/08 02:12:42;;;;;;;;;;;;;;;3.89;86.53;100567.12;1633975;86;20182;-81
2023/01/08 02:15:14;;;;;;;;;;;;;;;3.89;86.55;100559.02;1603831;86;20273;-81
2023/01/08 02:17:59;;;;;;;;;;;;;;;3.88;86.59;100557.73;1623280;86;20585;-81
2023/01/08 02:20:30;;;;;;;;;;;;;;;3.87;86.58;100554.31;1610020;86;20247;-81
2023/01/08 02:23:09;;;;;;;;;;;;;;;3.86;86.52;100556.44;1626701;86;21814;-81
2023/01/08 02:26:05;;;;;;;;;;;;;;;3.84;86.53;100553.00;1624897;86;20969;-81
2023/01/08 02:28:34;;;;;;;;;;;;;;;3.84;86.53;100545.33;1639012;86;20186;-81
2023/01/08 02:31:01;;;;;;;;;;;;;;;3.83;86.55;100519.31;1624643;86;20249;-81
2023/01/08 02:33:28;;;;;;;;;;;;;;;3.83;86.56;100518.03;1629629;86;20223;-81
2023/01/08 02:36:15;;;;;;;;;;;;;;;3.80;86.49;100519.28;1635110;86;21096;-81
2023/01/08 02:39:01;;;;;;;;;;;;;;;3.77;86.43;100513.28;1636301;86;21127;-82
2023/01/08 02:41:46;;;;;;;;;;;;;;;3.75;86.50;100513.69;1625239;86;20260;-81
2023/01/08 02:44:16;;;;;;;;;;;;;;;3.75;86.54;100516.24;1613194;86;20705;-81
2023/01/08 02:46:42;;;;;;;;;;;;;;;3.74;86.53;100519.22;1616947;86;20522;-81
2023/01/08 02:49:10;;;;;;;;;;;;;;;3.73;86.49;100507.28;1634311;86;21966;-81
2023/01/08 02:51:42;;;;;;;;;;;;;;;3.73;86.50;100502.58;1635138;86;20187;-81
2023/01/08 02:54:12;;;;;;;;;;;;;;;3.71;86.49;100499.16;1631656;86;20221;-81
2023/01/08 02:56:41;;;;;;;;;;;;;;;3.71;86.50;100504.27;1621618;86;20690;-82
2023/01/08 02:59:09;;;;;;;;;;;;;;;3.71;86.54;100505.55;1624461;86;20200;-82
2023/01/08 03:01:36;;;;;;;;;;;;;;;3.72;86.55;100503.00;1636645;86;21019;-81
2023/01/08 03:04:09;;;;;;;;;;;;;;;3.71;86.53;100502.56;1639776;86;20487;-81
2023/01/08 03:06:35;;;;;;;;;;;;;;;3.71;86.52;100502.99;1605319;87;20246;-81
2023/01/08 03:09:01;;;;;;;;;;;;;;;3.71;86.54;100511.94;1574783;87;20236;-81
2023/01/08 03:11:30;;;;;;;;;;;;;;;3.70;86.49;100506.39;1599633;88;20210;-81
2023/01/08 03:14:12;;;;;;;;;;;;;;;3.68;86.50;100490.17;1606850;88;21148;-81
2023/01/08 03:16:47;;;;;;;;;;;;;;;3.65;86.45;100489.30;1546089;88;20216;-82
2023/01/08 03:19:21;;;;;;;;;;;;;;;3.62;86.40;100482.05;1605429;88;20245;-81
2023/01/08 03:21:49;;;;;;;;;;;;;;;3.60;86.44;100470.53;1595291;88;20489;-82
2023/01/08 03:24:19;;;;;;;;;;;;;;;3.58;86.47;100470.08;1482517;87;5001359;-82
2023/01/08 03:26:47;;;;;;;;;;;;;;;3.58;86.49;100475.20;1598065;89;20200;-81
2023/01/08 03:29:16;;;;;;;;;;;;;;;3.57;86.49;100478.59;1591536;88;20508;-81
2023/01/08 03:31:43;;;;;;;;;;;;;;;3.56;86.51;100478.16;1594268;88;20196;-81
2023/01/08 03:34:10;;;;;;;;;;;;;;;3.57;86.53;100473.48;1589684;87;20542;-81
2023/01/08 03:36:38;;;;;;;;;;;;;;;3.58;86.56;100472.64;1587772;88;21115;-81
2023/01/08 03:39:13;;;;;;;;;;;;;;;3.57;86.53;100457.72;1592052;87;20207;-81
2023/01/08 03:41:40;;;;;;;;;;;;;;;3.57;86.51;100448.77;1605119;88;20624;-81
2023/01/08 03:44:06;;;;;;;;;;;;;;;3.56;86.46;100445.78;1598908;88;20542;-81
2023/01/08 03:46:35;;;;;;;;;;;;;;;3.54;86.47;100441.08;1587610;88;20218;-81
2023/01/08 03:49:03;;;;;;;;;;;;;;;3.54;86.47;100431.27;1597183;88;21517;-81
2023/01/08 03:51:40;;;;;;;;;;;;;;;3.53;86.51;100431.69;1608651;87;20235;-81
2023/01/08 03:54:10;;;;;;;;;;;;;;;3.54;86.52;100443.63;1597115;87;20537;-81
2023/01/08 03:56:36;;;;;;;;;;;;;;;3.55;86.53;100439.38;1606140;87;20188;-82
2023/01/08 03:59:03;;;;;;;;;;;;;;;3.55;86.53;100436.81;1587571;88;20236;-82
2023/01/08 04:01:29;;;;;;;;;;;;;;;3.55;86.54;100441.52;1608903;88;21066;-81
2023/01/08 04:03:55;;;;;;;;;;;;;;;3.56;86.51;100433.00;1599506;88;20228;-81
2023/01/08 04:06:21;;;;;;;;;;;;;;;3.56;86.57;100433.42;1601485;87;20638;-81
2023/01/08 04:08:48;;;;;;;;;;;;;;;3.57;86.57;100423.20;1604603;87;20204;-81
2023/01/08 04:11:14;;;;;;;;;;;;;;;3.58;86.56;100424.92;1596734;88;20633;-81
2023/01/08 04:13:40;;;;;;;;;;;;;;;3.59;86.54;100420.67;1612654;88;21123;-81
2023/01/08 04:16:07;;;;;;;;;;;;;;;3.59;86.55;100416.83;1610290;87;20215;-82
2023/01/08 04:18:33;;;;;;;;;;;;;;;3.59;86.59;100417.69;1613196;87;20168;-81
2023/01/08 04:20:59;;;;;;;;;;;;;;;3.59;86.55;100420.24;1599532;86;21003;-81
2023/01/08 04:23:26;;;;;;;;;;;;;;;3.59;86.55;100416.41;1600849;88;20196;-81
2023/01/08 04:25:52;;;;;;;;;;;;;;;3.60;86.54;100407.04;1601160;88;21115;-81
2023/01/08 04:28:18;;;;;;;;;;;;;;;3.60;86.54;100407.04;1615829;86;20211;-82
2023/01/08 04:30:44;;;;;;;;;;;;;;;3.60;86.59;100413.43;1609251;87;20223;-82
2023/01/08 04:33:11;;;;;;;;;;;;;;;3.60;86.60;100417.27;1619742;87;20350;-81
2023/01/08 04:35:37;;;;;;;;;;;;;;;3.61;86.56;100412.59;1612846;86;20188;-81
2023/01/08 04:38:03;;;;;;;;;;;;;;;3.61;86.54;100406.20;1597628;88;21868;-81
2023/01/08 04:40:31;;;;;;;;;;;;;;;3.61;86.59;100408.33;1610495;88;20279;-81
2023/01/08 04:42:57;;;;;;;;;;;;;;;3.61;86.56;100400.66;1611327;88;20183;-81
2023/01/08 04:45:24;;;;;;;;;;;;;;;3.61;86.48;100380.21;1615327;87;20212;-81
2023/01/08 04:47:56;;;;;;;;;;;;;;;3.60;86.51;100386.59;1619039;87;20171;-81
2023/01/08 04:50:23;;;;;;;;;;;;;;;3.59;86.57;100386.16;1604811;88;21784;-81
2023/01/08 04:52:49;;;;;;;;;;;;;;;3.60;86.58;100394.26;1610256;88;20228;-81
2023/01/08 04:55:16;;;;;;;;;;;;;;;3.58;86.52;100395.52;1607266;87;20200;-81
2023/01/08 04:57:42;;;;;;;;;;;;;;;3.57;86.54;100389.98;1608803;87;20431;-81
2023/01/08 05:00:09;;;;;;;;;;;;;;;3.57;86.53;100382.73;1626980;87;20225;-82
2023/01/08 05:02:35;;;;;;;;;;;;;;;3.55;86.53;100379.30;1605002;87;21541;-81
2023/01/08 05:05:01;;;;;;;;;;;;;;;3.55;86.54;100371.63;1607105;87;20631;-81
2023/01/08 05:07:27;;;;;;;;;;;;;;;3.56;86.57;100381.88;1616771;87;20207;-81
2023/01/08 05:09:53;;;;;;;;;;;;;;;3.56;86.59;100386.98;1616989;87;20380;-81
2023/01/08 05:12:20;;;;;;;;;;;;;;;3.57;86.56;100381.45;1605352;87;20530;-81
2023/01/08 05:14:46;;;;;;;;;;;;;;;3.56;86.57;100371.64;1607038;88;22273;-81
2023/01/08 05:17:12;;;;;;;;;;;;;;;3.56;86.57;100381.88;1606493;87;20214;-81
2023/01/08 05:19:38;;;;;;;;;;;;;;;3.55;86.52;100390.38;1603985;88;20235;-81
2023/01/08 05:22:04;;;;;;;;;;;;;;;3.55;86.56;100388.25;1611018;87;20903;-81
2023/01/08 05:24:30;;;;;;;;;;;;;;;3.53;86.53;100393.77;1607124;88;20188;-81
2023/01/08 05:26:56;;;;;;;;;;;;;;;3.52;86.54;100389.08;1608207;88;21785;-81
2023/01/08 05:29:23;;;;;;;;;;;;;;;3.51;86.55;100391.20;1603314;87;20188;-81
2023/01/08 05:31:49;;;;;;;;;;;;;;;3.51;86.55;100386.09;1603673;87;20205;-81
2023/01/08 05:34:15;;;;;;;;;;;;;;;3.51;86.56;100378.84;1613536;88;20196;-81
2023/01/08 05:36:42;;;;;;;;;;;;;;;3.51;86.57;100368.61;1606661;87;20211;-81
2023/01/08 05:39:08;;;;;;;;;;;;;;;3.50;86.56;100368.17;1607810;88;21230;-81
2023/01/08 05:41:34;;;;;;;;;;;;;;;3.48;86.55;100365.61;1616855;87;20484;-81
2023/01/08 05:44:00;;;;;;;;;;;;;;;3.47;86.52;100370.70;1608506;87;20553;-82
2023/01/08 05:46:26;;;;;;;;;;;;;;;3.45;86.54;100370.69;1604533;88;21124;-81
2023/01/08 05:48:52;;;;;;;;;;;;;;;3.43;86.54;100372.37;1610983;87;20218;-81
2023/01/08 05:51:19;;;;;;;;;;;;;;;3.44;86.54;100363.02;1618609;88;20981;-81
2023/01/08 05:53:45;;;;;;;;;;;;;;;3.41;86.54;100368.95;1611995;87;20842;-81
2023/01/08 05:56:12;;;;;;;;;;;;;;;3.39;86.51;100371.06;1598234;88;20237;-81
2023/01/08 05:58:38;;;;;;;;;;;;;;;3.37;86.51;100363.80;1599098;87;20301;-82
2023/01/08 06:01:09;;;;;;;;;;;;;;;3.36;86.51;100365.92;1600723;88;20467;-81
2023/01/08 06:03:36;;;;;;;;;;;;;;;3.35;86.53;100366.77;1604612;88;21162;-81
2023/01/08 06:06:05;;;;;;;;;;;;;;;3.33;86.52;100366.33;1606606;87;20217;-81
2023/01/08 06:08:32;;;;;;;;;;;;;;;3.32;86.54;100363.75;1625132;86;20185;-81
2023/01/08 06:11:03;;;;;;;;;;;;;;;3.31;86.56;100357.78;1623407;86;20212;-81
2023/01/08 06:13:29;;;;;;;;;;;;;;;3.30;86.57;100356.08;1624798;86;20196;-81
2023/01/08 06:15:58;;;;;;;;;;;;;;;3.29;86.53;100353.50;1622961;86;21039;-81
2023/01/08 06:18:25;;;;;;;;;;;;;;;3.25;86.43;100347.52;1631262;86;20522;-81
2023/01/08 06:20:52;;;;;;;;;;;;;;;3.20;86.33;100339.36;1629935;86;20538;-81
2023/01/08 06:23:18;;;;;;;;;;;;;;;3.16;86.40;100341.45;1633686;86;20194;-81
2023/01/08 06:25:44;;;;;;;;;;;;;;;3.14;86.46;100349.52;1629657;86;20238;-81
2023/01/08 06:28:10;;;;;;;;;;;;;;;3.13;86.54;100351.22;1651308;86;21058;-81
2023/01/08 06:30:36;;;;;;;;;;;;;;;3.12;86.53;100349.51;1643223;86;20193;-81
2023/01/08 06:33:02;;;;;;;;;;;;;;;3.12;86.54;100350.78;1618291;86;20185;-81
2023/01/08 06:35:28;;;;;;;;;;;;;;;3.11;86.54;100343.14;1623240;86;20249;-81
2023/01/08 06:37:55;;;;;;;;;;;;;;;3.10;86.53;100341.01;1627556;86;20227;-81
2023/01/08 06:40:22;;;;;;;;;;;;;;;3.09;86.53;100334.19;1621913;86;21070;-81
2023/01/08 06:42:48;;;;;;;;;;;;;;;3.06;86.49;100343.09;1635804;86;20168;-82
2023/01/08 06:45:15;;;;;;;;;;;;;;;3.07;86.48;100342.25;1628947;86;20294;-81
2023/01/08 06:47:41;;;;;;;;;;;;;;;3.05;86.49;100341.38;1634690;86;20185;-81
2023/01/08 06:50:07;;;;;;;;;;;;;;;3.04;86.51;100347.33;1629439;86;20206;-81
2023/01/08 06:52:34;;;;;;;;;;;;;;;3.03;86.51;100341.78;1630624;86;21663;-81
2023/01/08 06:55:00;;;;;;;;;;;;;;;3.02;86.49;100340.49;1627988;86;20195;-81
2023/01/08 06:57:27;;;;;;;;;;;;;;;2.99;86.49;100333.23;1633953;86;20215;-81
2023/01/08 06:59:53;;;;;;;;;;;;;;;2.98;86.51;100321.30;1636372;86;20196;-81
2023/01/08 07:02:19;;;;;;;;;;;;;;;2.99;86.50;100320.89;1641131;86;20193;-81
2023/01/08 07:04:45;;;;;;;;;;;;;;;2.96;86.46;100311.50;1649199;86;21043;-82
2023/01/08 07:07:13;;;;;;;;;;;;;;;2.94;86.46;100308.07;1643005;86;20199;-82
2023/01/08 07:09:42;;;;;;;;;;;;;;;2.94;86.46;100305.94;1621865;86;20270;-81
2023/01/08 07:12:15;;;;;;;;;;;;;;;2.91;86.48;100295.69;1645510;86;20232;-80
2023/01/08 07:14:41;;;;;;;;;;;;;;;2.91;86.53;100302.93;1648000;86;20196;-81
2023/01/08 07:17:07;;;;;;;;;;;;;;;2.91;86.50;100302.08;1647055;86;21047;-81
2023/01/08 07:19:33;;;;;;;;;;;;;;;2.92;86.55;100307.62;1646968;86;20646;-80
2023/01/08 07:22:00;;;;;;;;;;;;;;;2.92;86.54;100308.89;1647201;86;20200;-81
2023/01/08 07:24:26;;;;;;;;;;;;;;;2.92;86.54;100303.37;1643567;86;20636;-81
2023/01/08 07:26:52;;;;;;;;;;;;;;;2.92;86.56;100302.52;1623697;86;20667;-81
2023/01/08 07:29:18;;;;;;;;;;;;;;;2.95;86.61;100301.27;1624295;86;20354;-81
2023/01/08 07:31:44;;;;;;;;;;;;;;;2.97;86.60;100294.05;1620823;86;20561;-81
2023/01/08 07:34:10;;;;;;;;;;;;;;;2.98;86.57;100286.83;1626355;86;20200;-81
2023/01/08 07:36:36;;;;;;;;;;;;;;;3.01;86.62;100284.72;1625455;86;20131;-81
2023/01/08 07:39:03;;;;;;;;;;;;;;;3.02;86.63;100288.98;1639442;86;20211;-81
2023/01/08 07:41:29;;;;;;;;;;;;;;;3.05;86.59;100289.02;1642774;86;21508;-81
2023/01/08 07:43:55;;;;;;;;;;;;;;;3.08;86.63;100290.75;1623923;86;20452;-81
2023/01/08 07:46:21;;;;;;;;;;;;;;;3.14;86.69;100290.34;1628245;86;21305;-81
2023/01/08 07:48:48;;;;;;;;;;;;;;;3.19;86.69;100295.08;1628429;86;20817;-81
2023/01/08 07:51:14;;;;;;;;;;;;;;;3.24;86.68;100295.97;1628679;86;20211;-81
2023/01/08 07:53:40;;;;;;;;;;;;;;;3.26;86.64;100286.62;1631030;86;21731;-81
2023/01/08 07:56:09;;;;;;;;;;;;;;;3.29;86.64;100290.48;1626753;86;20454;-81
2023/01/08 07:58:35;;;;;;;;;;;;;;;3.32;86.64;100292.20;1628023;86;20202;-81
2023/01/08 08:01:01;;;;;;;;;;;;;;;3.35;86.63;100294.78;1627045;86;20117;-81
2023/01/08 08:03:28;;;;;;;;;;;;;;;3.40;86.64;100290.99;1629291;86;20099;-81
2023/01/08 08:05:54;;;;;;;;;;;;;;;3.44;86.64;100283.78;1626880;86;21810;-81
2023/01/08 08:08:20;;;;;;;;;;;;;;;3.47;86.64;100290.20;1631229;86;20099;-81
2023/01/08 08:10:46;;;;;;;;;;;;;;;3.51;86.67;100295.77;1629561;86;20689;-81
2023/01/08 08:13:12;;;;;;;;;;;;;;;3.53;86.68;100293.66;1625950;86;20647;-81
2023/01/08 08:15:40;;;;;;;;;;;;;;;3.53;86.63;100292.38;1627972;86;20218;-81
2023/01/08 08:18:06;;;;;;;;;;;;;;;3.57;86.72;100292.83;1627575;86;21830;-82
2023/01/08 08:20:33;;;;;;;;;;;;;;;3.61;86.77;100299.68;1628380;86;20214;-81
2023/01/08 08:23:01;;;;;;;;;;;;;;;3.65;86.77;100296.27;1628568;86;20226;-81
2023/01/08 08:25:27;;;;;;;;;;;;;;;3.70;86.78;100296.72;1624780;86;20243;-81
2023/01/08 08:27:57;;;;;;;;;;;;;;;3.72;86.79;100290.77;1641774;86;20231;-81
2023/01/08 08:30:24;;;;;;;;;;;;;;;3.76;86.79;100292.50;1648350;86;21036;-81
2023/01/08 08:32:50;;;;;;;;;;;;;;;3.78;86.77;100285.70;1639705;86;20179;-80
2023/01/08 08:35:16;;;;;;;;;;;;;;;3.83;86.80;100288.28;1634664;86;20203;-80
2023/01/08 08:37:43;;;;;;;;;;;;;;;3.87;86.85;100286.18;1637454;86;20492;-81
2023/01/08 08:40:09;;;;;;;;;;;;;;;3.92;86.86;100284.50;1629563;86;20204;-81
2023/01/08 08:42:35;;;;;;;;;;;;;;;3.95;86.85;100267.89;1630600;86;21834;-81
2023/01/08 08:45:02;;;;;;;;;;;;;;;3.98;86.88;100270.05;1624723;86;20232;-81
2023/01/08 08:47:28;;;;;;;;;;;;;;;4.03;86.87;100267.52;1628578;86;20169;-81
2023/01/08 08:49:54;;;;;;;;;;;;;;;4.07;86.89;100274.36;1631232;86;20438;-81
2023/01/08 08:52:20;;;;;;;;;;;;;;;4.12;86.92;100270.54;1630296;86;20225;-80
2023/01/08 08:54:46;;;;;;;;;;;;;;;4.16;86.92;100270.53;1623855;86;21730;-80
2023/01/08 08:57:13;;;;;;;;;;;;;;;4.22;86.95;100263.30;1624363;86;20264;-80
2023/01/08 08:59:39;;;;;;;;;;;;;;;4.26;86.99;100266.30;1625638;86;20200;-80
2023/01/08 09:02:05;;;;;;;;;;;;;;;4.30;86.94;100267.61;1624676;86;20204;-80
2023/01/08 09:04:32;;;;;;;;;;;;;;;4.36;87.00;100275.73;1623158;86;20578;-81
2023/01/08 09:06:59;;;;;;;;;;;;;;;4.41;87.03;100274.05;1626582;86;21112;-80
2023/01/08 09:09:25;;;;;;;;;;;;;;;4.48;87.05;100272.36;1627039;86;20636;-81
2023/01/08 09:11:52;;;;;;;;;;;;;;;4.53;87.03;100268.11;1621634;86;20198;-81
2023/01/08 09:14:18;;;;;;;;;;;;;;;4.58;87.09;100274.95;1618215;86;20195;-81
2023/01/08 09:16:45;;;;;;;;;;;;;;;4.65;87.08;100270.70;1615654;86;20543;-80
2023/01/08 09:19:11;;;;;;;;;;;;;;;4.71;87.10;100256.60;1620872;86;21067;-81
2023/01/08 09:21:37;;;;;;;;;;;;;;;4.78;87.08;100254.91;1618413;87;20329;-81
2023/01/08 09:24:04;;;;;;;;;;;;;;;4.84;87.14;100254.50;1622364;86;20186;-80
2023/01/08 09:26:30;;;;;;;;;;;;;;;4.92;87.15;100259.62;1621643;87;20255;-82
2023/01/08 09:28:57;;;;;;;;;;;;;;;4.98;87.13;100253.23;1617466;86;20229;-81
2023/01/08 09:31:23;;;;;;;;;;;;;;;5.04;87.17;100253.23;1618761;86;21091;-81
2023/01/08 09:33:50;;;;;;;;;;;;;;;5.12;87.23;100252.81;1613973;86;20474;-81
2023/01/08 09:36:16;;;;;;;;;;;;;;;5.20;87.25;100251.08;1615852;86;20246;-81
2023/01/08 09:38:43;;;;;;;;;;;;;;;5.27;87.18;100253.21;1623217;86;20201;-80
2023/01/08 09:41:19;;;;;;;;;;;;;;;5.29;87.13;100251.08;1618110;87;20241;-80
2023/01/08 09:43:47;;;;;;;;;;;;;;;5.31;87.08;100240.39;1619013;86;21120;-80
2023/01/08 09:46:15;;;;;;;;;;;;;;;5.33;87.05;100239.97;1616934;86;20234;-80
2023/01/08 09:48:42;;;;;;;;;;;;;;;5.37;87.13;100236.12;1597266;87;20170;-81
2023/01/08 09:51:17;;;;;;;;;;;;;;;5.40;87.10;100239.96;1616936;86;20540;-81
2023/01/08 09:53:44;;;;;;;;;;;;;;;5.41;87.09;100249.36;1620070;86;20249;-81
2023/01/08 09:56:13;;;;;;;;;;;;;;;5.44;87.15;100250.22;1621371;86;21535;-81
2023/01/08 09:58:54;;;;;;;;;;;;;;;5.46;87.11;100252.35;1617027;86;20264;-74
2023/01/08 10:01:23;;;;;;;;;;;;;;;5.48;87.14;100245.51;1613479;87;20572;-73
2023/01/08 10:04:14;;;;;;;;;;;;;;;5.51;87.12;100240.80;1611677;87;20261;-77
2023/01/08 10:06:41;;;;;;;;;;;;;;;5.54;87.14;100238.23;1617539;87;20195;-77
2023/01/08 10:09:11;;;;;;;;;;;;;;;5.56;87.13;100246.36;1617656;87;21145;-77
2023/01/08 10:11:42;;;;;;;;;;;;;;;5.59;87.13;100232.25;1625469;86;20341;-77
2023/01/08 10:14:12;;;;;;;;;;;;;;;5.63;87.15;100226.25;1625861;86;20186;-77
2023/01/08 10:16:40;;;;;;;;;;;;;;;5.66;87.13;100225.39;1624279;86;20518;-81
2023/01/08 10:19:08;;;;;;;;;;;;;;;5.68;87.16;100218.55;1620052;86;20178;-78
2023/01/08 10:21:37;;;;;;;;;;;;;;;5.70;87.13;100210.84;1622728;86;21237;-78
2023/01/08 10:24:04;;;;;;;;;;;;;;;5.72;87.12;100215.09;1631681;86;20221;-78
2023/01/08 10:26:32;;;;;;;;;;;;;;;5.76;87.14;100215.93;1626023;86;20202;-78
2023/01/08 10:29:13;;;;;;;;;;;;;;;5.78;87.14;100214.22;1610990;87;20225;-78
2023/01/08 10:31:53;;;;;;;;;;;;;;;5.80;87.09;100212.50;1631204;84;20331;-78
2023/01/08 10:34:26;;;;;;;;;;;;;;;5.84;87.17;100209.06;593282;84;10017502;-78
2023/01/08 10:36:53;;;;;;;;;;;;;;;5.89;87.20;100207.38;1550314;87;20534;-78
2023/01/08 10:39:25;;;;;;;;;;;;;;;5.92;87.15;100200.95;1599117;87;20243;-78
2023/01/08 10:41:54;;;;;;;;;;;;;;;5.94;87.13;100194.95;1599597;87;20687;-78
2023/01/08 10:44:22;;;;;;;;;;;;;;;5.96;87.17;100194.52;1606852;87;21104;-78
2023/01/08 10:46:52;;;;;;;;;;;;;;;6.00;87.18;100190.22;1646929;84;20185;-78
2023/01/08 10:49:30;;;;;;;;;;;;;;;6.02;87.12;100186.37;1651705;85;20200;-78
2023/01/08 10:51:57;;;;;;;;;;;;;;;6.02;87.12;100179.52;1640982;85;20605;-77
2023/01/08 10:54:36;;;;;;;;;;;;;;;6.04;87.15;100182.94;1644451;85;20179;-78
2023/01/08 10:57:05;;;;;;;;;;;;;;;6.05;87.15;100176.94;1645037;85;21190;-78
2023/01/08 10:59:31;;;;;;;;;;;;;;;6.05;87.09;100185.07;1649855;85;20221;-78
2023/01/08 11:01:57;;;;;;;;;;;;;;;6.05;87.13;100180.79;1642139;85;20231;-78
2023/01/08 11:04:31;;;;;;;;;;;;;;;6.07;87.16;100167.95;1656996;85;20189;-78
2023/01/08 11:07:01;;;;;;;;;;;;;;;6.08;87.11;100168.38;1648407;85;20195;-78
2023/01/08 11:09:30;;;;;;;;;;;;;;;6.11;87.15;100169.21;1641368;85;21988;-78
2023/01/08 11:11:57;;;;;;;;;;;;;;;6.14;87.18;100164.50;1649093;85;20210;-78
2023/01/08 11:14:33;;;;;;;;;;;;;;;6.18;87.20;100163.63;1629922;86;20211;-78
2023/01/08 11:17:04;;;;;;;;;;;;;;;6.20;87.22;100161.47;1652270;85;20500;-78
2023/01/08 11:19:31;;;;;;;;;;;;;;;6.25;87.21;100153.70;1645983;85;20105;-78
2023/01/08 11:22:03;;;;;;;;;;;;;;;6.30;87.29;100151.53;1639047;85;21063;-78
2023/01/08 11:24:31;;;;;;;;;;;;;;;6.36;87.29;100149.36;1656587;85;20125;-78
2023/01/08 11:27:00;;;;;;;;;;;;;;;6.43;87.34;100139.91;1636956;85;20181;-78
2023/01/08 11:29:49;;;;;;;;;;;;;;;6.50;87.34;100137.72;1645919;85;20152;-77
2023/01/08 11:32:24;;;;;;;;;;;;;;;6.55;87.32;100129.55;1637948;85;20726;-78
2023/01/08 11:34:54;;;;;;;;;;;;;;;6.59;87.20;100131.23;1647086;85;21210;-78
2023/01/08 11:37:25;;;;;;;;;;;;;;;6.61;87.19;100128.22;1652686;85;20138;-78
2023/01/08 11:39:52;;;;;;;;;;;;;;;6.63;87.23;100127.34;1657385;85;20134;-78
2023/01/08 11:42:25;;;;;;;;;;;;;;;6.66;87.21;100126.47;1649678;85;20172;-78
2023/01/08 11:45:00;;;;;;;;;;;;;;;6.68;87.23;100122.59;1660062;85;20134;-78
2023/01/08 11:47:42;;;;;;;;;;;;;;;6.70;87.21;100121.72;1659763;85;21037;-78
2023/01/08 11:50:18;;;;;;;;;;;;;;;6.71;87.20;100131.56;1650381;85;20430;-78
2023/01/08 11:52:57;;;;;;;;;;;;;;;6.72;87.21;100120.00;1643806;85;20143;-78
2023/01/08 11:55:42;;;;;;;;;;;;;;;6.75;87.27;100123.83;1655491;85;20859;-78
2023/01/08 11:58:24;;;;;;;;;;;;;;;6.82;87.25;100118.17;1647370;85;20113;-78
2023/01/08 12:01:02;;;;;;;;;;;;;;;6.84;87.16;100105.73;1654593;85;21170;-79
2023/01/08 12:03:35;;;;;;;;;;;;;;;6.85;87.16;100101.00;1653027;85;20121;-79
2023/01/08 12:06:26;;;;;;;;;;;;;;;6.86;87.13;100091.14;1653112;85;20140;-79
2023/01/08 12:09:05;;;;;;;;;;;;;;;6.89;87.15;100096.69;1651164;85;20508;-79
2023/01/08 12:11:38;;;;;;;;;;;;;;;6.89;87.10;100094.13;1663376;85;20129;-79
2023/01/08 12:14:24;;;;;;;;;;;;;;;6.91;87.13;100098.37;1647576;85;21150;-79
2023/01/08 12:17:02;;;;;;;;;;;;;;;6.92;87.12;100096.23;1651207;85;20119;-79
2023/01/08 12:20:00;;;;;;;;;;;;;;;6.94;87.14;100097.50;1645464;85;20171;-79
2023/01/08 12:22:45;;;;;;;;;;;;;;;6.94;87.10;100090.64;1617447;85;20461;-79
2023/01/08 12:25:18;;;;;;;;;;;;;;;6.96;87.14;100087.63;1650900;85;20169;-79
2023/01/08 12:27:59;;;;;;;;;;;;;;;6.98;87.15;100082.47;1652181;85;21112;-79
2023/01/08 12:30:58;;;;;;;;;;;;;;;6.98;87.09;100067.05;1610441;85;20184;-79
2023/01/08 12:33:47;;;;;;;;;;;;;;;6.98;87.07;100075.61;1647987;85;20161;-79
2023/01/08 12:36:17;;;;;;;;;;;;;;;6.98;87.06;100078.18;1652533;85;20622;-79
2023/01/08 12:38:45;;;;;;;;;;;;;;;6.98;87.05;100077.33;1654589;85;20120;-79
2023/01/08 12:41:17;;;;;;;;;;;;;;;6.98;87.07;100079.89;1654005;85;21066;-79
2023/01/08 12:43:58;;;;;;;;;;;;;;;6.99;87.07;100079.03;1650932;85;20137;-79
2023/01/08 12:46:26;;;;;;;;;;;;;;;6.98;87.06;100074.32;1639996;85;20425;-78
2023/01/08 12:48:53;;;;;;;;;;;;;;;6.99;87.07;100077.74;1648760;85;20577;-78
2023/01/08 12:51:35;;;;;;;;;;;;;;;6.98;87.08;100080.75;1648331;85;20096;-78
2023/01/08 12:54:19;;;;;;;;;;;;;;;7.00;87.08;100079.88;1651326;85;21171;-78
2023/01/08 12:57:01;;;;;;;;;;;;;;;7.01;87.09;100085.01;1648387;85;20134;-78